This site, now in its 15th season, is a labour of love and fun from one of Ottawa's most avid time trialists and number crunchers. It adheres to and is permitted by the laws of Canada, promotes the objectives of every bicycle club whose results are shown, and is donated free of charge by myself for your enjoyment and usage. If you would like results from series you ride in to be shown here, give me (celia@drmath.ca) a shout!


Index Page
ATT OTT WTT CFCTT VVVTT
Help resultformat:
Case-sensitive

OBC Open TT Series - 1998-May-07 - 15km (Rockliffe Pkwy) (EvtFactor = 0.9109)

Weather (18:00): Mainly Clear. Temp.: 22.5°C, Humidity: 55%, DewPoint: 13.1°C, Wind: ENE 7km/h, Pressure: 99.59kPa, Visibility: 16.1km.
Weather (19:00): Mainly Clear. Temp.: 22.2°C, Humidity: 55%, DewPoint: 12.8°C, Wind: E 7km/h, Pressure: 99.59kPa, Visibility: 19.3km.
Weather (20:00): Mostly Cloudy. Temp.: 21.1°C, Humidity: 56%, DewPoint: 12.0°C, Wind: E 6km/h, Pressure: 99.59kPa, Visibility: 24.1km.

Send photos with description (when/where/what) of yourself on or off of bike to celia@drmath.ca

 
 

BESTS?
 
Y 1 Plaunt, Grahame --- 19:31 46.114 1/65 SEM 1/13  
2 Lockhart, Kevin --- 21:08 42.587 2/65 SEM 2/13  
3 Bakker, Osmond OBC 21:16 42.320 3/65 SEM 3/13  
Prud'homme, Michel OBC 21:16 42.320 3/65 SEM 3/13  
5 Murray, Ken OBC 21:31 41.828 5/65 SEM 5/13  
6 Schuck, Peter  OBC 21:45 41.379 6/65 VBM 1/9  
7 Fillion, Aaron  OBC 21:47 41.316 7/65 SEM 6/13  
8 Hamilton, Peter OBC 22:03 40.816 8/65 VAM 1/11 1.1572
9 Romkey, Gary OBC 22:09 40.632 9/65 VCM 1/8  
Simpson, Tait OBC 22:09 40.632 9/65 JUM 1/7  
11 Salois, Marc-Andre OBC 22:15 40.449 11/65 JUM 2/7  
12 Villeneuve, Mathieu OBC 22:28 40.059 12/65 JUM 3/7  
13 Hunter, Philip --- 22:31 39.970 13/65 VAM 2/11  
14 Morvan, Jacques  OBC 22:32 39.941 14/65 VCM 2/8  
15 Smeulders, Paul OBC 22:36 39.823 15/65 VAM 3/11 1.5581
16 Thouin, Nicolas OBC 22:42 39.648 16/65 JUM 4/7  
17 Burge, Larry  OBC 22:46 39.531 17/65 VAM 4/11  
18 Somogyi, Michel OBC 23:14 38.737 18/65 SEM 7/13  
19 Rokosh, Kevin OBC 23:21 38.544 19/65 VAM 5/11 1.3516
20 Burdett, Avery  OBC 23:22 38.516 20/65 VCM 3/8 1.2444
21 Burke, Aaron OBC 23:26 38.407 21/65 JUM 5/7  
22 Hall, Stephen OBC 23:41 38.001 22/65 SEM 8/13  
23 Weiser, Paul OBC 23:53 37.683 23/65 VCM 4/8 1.2876
24 Desjardins, André --- 23:58 37.552 24/65 SEM 9/13  
25 McKay, Michael OBC 24:07 37.319 25/65 VAM 6/11  
26 Riby, Stephen OBC 24:11 37.216 26/65 VAM 7/11  
27 Austen, Ian  OBC 24:16 37.088 27/65 VBM 2/9  
28 Betteridge, Eric OBC 24:17 37.062 28/65 VAM 8/11  
29 Gartner, Sean --- 24:19 37.012 29/65 VAM 9/11  
30 Janusauskas, Vytas  OBC 24:21 36.961 30/65 VBM 3/9 1.1734
31 Monette, Gary OBC 24:23 36.910 31/65 VBM 4/9  
32 Saunderson, Brian --- 24:29 36.760 32/65 VAM 10/11  
33 Lemay, Mathieu OBC 24:31 36.710 33/65 CAM 1/3  
34 McDonagh, Frank --- 24:43 36.413 34/65 SEM 10/13  
Wennerwald, Henning OBC 24:43 36.413 34/65 VCM 5/8 1.3874
36 Grieve, Richard --- 24:51 36.217 36/65 SEM 11/13  
Simpson, Bob OBC 24:51 36.217 36/65 VCM 6/8 1.5894
38 James, Peter OBC 25:07 35.833 38/65 VBM 5/9 1.1243
39 Campbell, Eric OBC 25:10 35.762 39/65 CAM 2/3 1.3601
40 Génier, Martin OBC 25:14 35.667 40/65 JUM 6/7 1.3908
41 Gasser, Pierre-Yves --- 25:17 35.597 41/65 VAM 11/11  
42 McInnis, Celia  OBC 25:34 35.202 42/65 VBF 1/1 1.1953
43 Cousineau, Martin --- 25:51 34.816 43/65 CAM 3/3  
44 Garneau, Valérie OBC 25:55 34.727 44/65 CAF 1/2  
45 Chedore, Paul OBC 25:57 34.682 45/65 SEM 12/13 1.1793
46 Hamel, Annie --- 26:03 34.549 46/65 SEF 1/1  
47 Forget, Marc OBC 26:14 34.307 47/65 JUM 7/7  
48 Roy, William OBC 26:21 34.156 48/65 MIM 1/4  
49 Dawe, Paul --- 26:37 33.813 49/65 SEM 13/13  
50 Dumoulin, Stéphanie OBC 26:39 33.771 50/65 MIF 1/3  
51 Adams, Jennifer OBC 26:55 33.437 51/65 VAF 1/2  
52 Salois, Olivier OBC 27:18 32.967 52/65 MIM 2/4  
53 Charbonneau, Eric OBC 28:00 32.143 53/65 MIM 3/4  
54 Marier, André OBC 28:06 32.028 54/65 VDM 1/1 1.2434
55 Howe, Sabrina OBC 28:21 31.746 55/65 VAF 2/2  
56 Hamelin, Gene --- 28:35 31.487 56/65 VBM 6/9  
57 Lavergne, Tanya --- 28:51 31.196 57/65 CAF 2/2  
58 McKenna, Perry OBC 28:59 31.052 58/65 VBM 7/9 1.1219
59 Lowe, Allan --- 29:07 30.910 59/65 VBM 8/9  
60 Paitich, Daniel OBC 29:09 30.875 60/65 VBM 9/9  
61 Garneau, Marie --- 29:21 30.664 61/65 MIF 2/3  
62 Pstross, Nick OBC 29:25 30.595 62/65 VCM 7/8 1.4332
63 Grandmaitre, Dani OBC 30:03 29.950 63/65 MIF 3/3  
64 Lee, Daniel OBC 30:36 29.412 64/65 VCM 8/8  
65 Lowe, Chris --- 31:06 28.939 65/65 MIM 4/4  
 
Average Speed of all of the above 65 finishes (975km in 27:05:13):35.995
>>>Average of the Average Speeds for these 65 finishes36.391<<<
 

The number of data records shown above is 65
The server processing of your query took: 0 wallclock secs ( 0.10 usr + 0.10 sys = 0.20 CPU)

Thanks to our Helpers: Paul Datars, Mike Martignago, Monique Ménard, Bram Moerman, Don Moxley, John Ossowski, Mila Roy, Pierre St-Amour.

     


Apr 10 (Good Friday)
May 5 (10km)
  May 7  
May 12 May 12 (10km) May 14 May 19 May 19 (10km) May 21 May 26 May 26 (10km) May 28
Jun 2 Jun 2 Jun 4 Jun 9 Jun 9 Jun 11 Jun 16 Jun 16 Jun 18 Jun 23 Jun 23 Jun 24 (40km) Jun 25 Jun 30 Jun 30
Jul 2 Jul 7 Jul 7 Jul 9 Jul 12 (40km) Jul 14 Jul 14 Jul 16 Jul 21 Jul 21 Jul 23 Jul 28 Jul 28 Jul 30
Aug 4 Aug 4 Aug 6 Aug 9 (40km) Aug 11 Aug 11 Aug 13 Aug 18 Aug 18 Aug 20 (cancelled) Aug 25 Aug 25 (Invitational) Aug 27
Sep 1 Sep 3 Sep 8 Sep 10 Sep 13 (40km) Sep 17 Sep 24

OTT Rankings
Best       Best by category
WTT Rankings for OBC Members
5 Best 15km     5 Best 15km by category
OBC Member Best Three 15km Rankings
Overall     by category
OBC BAR Ranking
Overall     by category     Rider "Consistency-Graph"
ABC BAR Ranking
Overall     by category     Rider "Consistency-Graph"
Other years
TT Calculator All TT People All TT events
ABC Home VVV Home
CKAP GOLD MEDAL
Other Links

Please send your comments and suggestions to: Celia McInnis
Copyright © 1998-2011 Celia McInnis. All rights reserved. Links are welcomed.